Time;durP1;ratioP1;P1;durP2;ratioP2;P2;SDS_P1;SDS_P2;PMS_P1;PMS_P2;Temp;Humidity;BMP_temperature;BMP_pressure;BME280_temperature;BME280_humidity;BME280_pressure;Samples;Min_cycle;Max_cycle;Signal;HPM_P1;HPM_P2
2021/03/08 00:01:29;;;;;;;11.20;5.17;;;;;;;0.37;79.18;100291.36;1676871;83;25812;-87
2021/03/08 00:03:56;;;;;;;11.40;5.28;;;;;;;0.36;79.18;100294.05;1683286;83;25829;-86
2021/03/08 00:06:22;;;;;;;7.70;4.97;;;;;;;0.34;79.10;100291.56;1685906;83;25835;-85
2021/03/08 00:08:49;;;;;;;9.30;5.22;;;;;;;0.29;78.96;100293.61;1678908;84;25903;-85
2021/03/08 00:11:15;;;;;;;11.90;5.75;;;;;;;0.25;79.01;100302.93;1677122;83;25403;-86
2021/03/08 00:13:42;;;;;;;9.78;4.80;;;;;;;0.19;79.05;100311.39;1677479;83;25691;-86
2021/03/08 00:16:09;;;;;;;10.08;5.55;;;;;;;0.14;79.09;100309.58;1674191;83;25877;-85
2021/03/08 00:18:36;;;;;;;8.45;5.17;;;;;;;0.10;79.04;100306.83;1683930;84;25847;-85
2021/03/08 00:21:02;;;;;;;12.65;5.87;;;;;;;0.08;79.20;100309.98;1684709;83;25778;-86
2021/03/08 00:23:29;;;;;;;11.88;5.58;;;;;;;0.05;79.19;100305.48;1670186;83;25849;-86
2021/03/08 00:25:55;;;;;;;11.22;5.45;;;;;;;0.04;79.19;100304.67;1682033;83;26396;-85
2021/03/08 00:28:21;;;;;;;10.88;5.80;;;;;;;0.05;79.33;100305.48;1676491;83;25896;-85
2021/03/08 00:30:49;;;;;;;11.38;5.65;;;;;;;-0.03;79.09;100304.25;1673238;83;25848;-85
2021/03/08 00:33:15;;;;;;;10.50;5.60;;;;;;;-0.06;79.18;100304.89;1675250;83;25920;-85
2021/03/08 00:35:42;;;;;;;10.70;5.35;;;;;;;-0.09;79.12;100301.23;1663773;84;25758;-86
2021/03/08 00:38:08;;;;;;;8.98;5.10;;;;;;;-0.11;79.10;100301.35;1677411;83;26382;-85
2021/03/08 00:40:34;;;;;;;9.30;5.10;;;;;;;-0.12;79.17;100298.40;1684902;83;25808;-85
2021/03/08 00:43:01;;;;;;;9.18;5.72;;;;;;;-0.14;79.08;100297.67;1682376;83;25728;-85
2021/03/08 00:45:28;;;;;;;10.68;5.20;;;;;;;-0.12;79.19;100293.73;1681549;83;25754;-85
2021/03/08 00:47:59;;;;;;;11.33;5.17;;;;;;;-0.16;79.09;100293.11;1679854;83;25918;-85
2021/03/08 00:50:29;;;;;;;7.03;4.33;;;;;;;-0.19;79.15;100298.45;1678000;83;26338;-86
2021/03/08 00:52:56;;;;;;;9.60;4.80;;;;;;;-0.22;79.13;100294.77;1676915;83;25902;-85
2021/03/08 00:55:24;;;;;;;13.08;5.47;;;;;;;-0.29;79.09;100286.64;1676637;83;25753;-85
2021/03/08 00:57:51;;;;;;;11.33;5.40;;;;;;;-0.33;79.19;100286.48;1682357;83;26469;-85
2021/03/08 01:00:26;;;;;;;8.90;4.85;;;;;;;-0.35;79.22;100285.75;1676096;83;26277;-85
2021/03/08 01:02:54;;;;;;;10.25;5.72;;;;;;;-0.39;79.20;100284.28;1680425;83;25713;-85
2021/03/08 01:05:23;;;;;;;9.98;5.50;;;;;;;-0.38;79.30;100279.53;1678483;83;25768;-85
2021/03/08 01:07:51;;;;;;;8.90;4.55;;;;;;;-0.40;79.19;100280.08;1689115;83;25842;-85
2021/03/08 01:10:22;;;;;;;10.13;5.15;;;;;;;-0.43;79.24;100276.89;1690246;83;25836;-85
2021/03/08 01:12:49;;;;;;;10.10;5.50;;;;;;;-0.46;79.19;100279.19;1682818;83;25951;-85
2021/03/08 01:15:16;;;;;;;6.95;4.28;;;;;;;-0.53;79.16;100276.62;1661890;84;25875;-85
2021/03/08 01:17:43;;;;;;;11.53;5.10;;;;;;;-0.55;79.37;100274.61;1662834;84;25778;-85
2021/03/08 01:20:16;;;;;;;11.43;5.20;;;;;;;-0.60;79.30;100274.92;1669098;84;26466;-86
2021/03/08 01:22:44;;;;;;;9.28;5.45;;;;;;;-0.58;79.44;100282.05;1676466;83;25781;-83
2021/03/08 01:25:21;;;;;;;9.80;5.50;;;;;;;-0.61;79.34;100272.44;1683405;83;25483;-85
2021/03/08 01:27:47;;;;;;;10.48;5.42;;;;;;;-0.64;79.34;100276.48;1678137;83;25691;-84
2021/03/08 01:30:19;;;;;;;12.45;5.65;;;;;;;-0.67;79.37;100273.17;1674462;83;25974;-84
2021/03/08 01:32:45;;;;;;;10.35;5.45;;;;;;;-0.66;79.49;100271.42;1682864;83;25869;-83
2021/03/08 01:35:12;;;;;;;12.65;6.08;;;;;;;-0.64;79.49;100270.87;1673577;83;25695;-84
2021/03/08 01:37:39;;;;;;;9.68;5.42;;;;;;;-0.68;79.49;100264.31;1686252;83;25826;-84
2021/03/08 01:40:09;;;;;;;10.18;5.70;;;;;;;-0.74;79.34;100266.80;1683734;84;25875;-84
2021/03/08 01:42:38;;;;;;;10.03;5.45;;;;;;;-0.77;79.46;100262.30;1680332;83;25958;-84
2021/03/08 01:45:12;;;;;;;9.08;5.35;;;;;;;-0.80;79.51;100264.59;1688396;83;25942;-85
2021/03/08 01:47:39;;;;;;;10.08;5.55;;;;;;;-0.79;79.56;100273.10;1685858;83;25947;-84
2021/03/08 01:50:10;;;;;;;10.98;5.60;;;;;;;-0.80;79.56;100267.62;1685979;83;25923;-85
2021/03/08 01:52:38;;;;;;;11.08;5.00;;;;;;;-0.82;79.60;100266.45;1678137;83;26443;-85
2021/03/08 01:55:06;;;;;;;10.45;5.83;;;;;;;-0.84;79.50;100266.99;1681827;83;25781;-85
2021/03/08 01:57:33;;;;;;;10.88;5.62;;;;;;;-0.87;79.51;100273.59;1681821;83;25742;-85
2021/03/08 02:00:00;;;;;;;10.68;5.67;;;;;;;-0.88;79.59;100270.64;1665957;83;25712;-85
2021/03/08 02:02:26;;;;;;;10.82;6.28;;;;;;;-0.87;79.67;100274.87;1678470;83;25846;-85
2021/03/08 02:04:53;;;;;;;10.93;6.62;;;;;;;-0.87;79.70;100274.87;1685756;83;25737;-84
2021/03/08 02:07:19;;;;;;;12.75;5.87;;;;;;;-0.88;79.66;100283.47;1681563;83;26559;-84
2021/03/08 02:09:46;;;;;;;9.70;5.47;;;;;;;-0.89;79.66;100279.27;1677180;84;25983;-84
2021/03/08 02:12:32;;;;;;;11.50;6.42;;;;;;;-0.94;79.59;100285.14;1676833;83;25991;-84
2021/03/08 02:15:13;;;;;;;10.63;5.87;;;;;;;-0.96;79.64;100283.94;1685402;83;25873;-85
2021/03/08 02:17:42;;;;;;;;;;;;;;;-0.96;79.71;100289.06;1656370;84;26490;-85
2021/03/08 02:20:35;;;;;;;9.15;5.65;;;;;;;-1.00;79.63;100296.59;1647506;84;25740;-85
2021/03/08 02:23:23;;;;;;;12.85;6.58;;;;;;;-1.07;79.66;100295.30;1646384;84;26509;-85
2021/03/08 02:26:28;;;;;;;14.78;6.35;;;;;;;-1.05;79.77;100299.07;1655208;84;25976;-86
2021/03/08 02:29:46;;;;;;;20.48;9.95;;;;;;;-1.07;79.80;100300.90;1649467;84;25903;-85
2021/03/08 02:32:15;;;;;;;33.85;12.37;;;;;;;-1.08;79.89;100303.11;1647279;84;25871;-85
2021/03/08 02:34:53;;;;;;;33.18;13.75;;;;;;;-1.10;79.91;100310.06;1648572;84;25851;-84
2021/03/08 02:37:24;;;;;;;42.78;16.60;;;;;;;-1.16;80.17;100310.79;1648343;84;25898;-85
2021/03/08 02:39:54;;;;;;;37.98;14.80;;;;;;;-1.19;80.11;100312.26;1652573;84;25796;-85
2021/03/08 02:42:29;;;;;;;26.48;12.45;;;;;;;-1.25;80.17;100310.06;1659612;84;25771;-85
2021/03/08 02:44:59;;;;;;;33.73;14.05;;;;;;;-1.30;80.19;100315.09;1652985;84;28148;-85
2021/03/08 02:47:28;;;;;;;25.45;11.38;;;;;;;-1.35;80.29;100310.23;1643077;84;25811;-85
2021/03/08 02:49:56;;;;;;;21.20;9.95;;;;;;;-1.34;80.37;100311.87;1634182;85;25491;-84
2021/03/08 02:52:25;;;;;;;22.15;9.98;;;;;;;-1.32;80.58;100316.45;1629475;86;25981;-85
2021/03/08 02:54:55;;;;;;;25.82;9.88;;;;;;;-1.33;80.35;100317.84;1639543;85;25828;-84
2021/03/08 02:57:26;;;;;;;28.95;12.33;;;;;;;-1.33;80.25;100321.69;1683028;84;25909;-84
2021/03/08 02:59:55;;;;;;;27.32;10.95;;;;;;;-1.31;80.41;100323.69;1674997;83;25339;-83
2021/03/08 03:02:23;;;;;;;22.80;10.98;;;;;;;-1.29;80.48;100329.09;1675778;83;25898;-84
2021/03/08 03:04:50;;;;;;;26.80;10.25;;;;;;;-1.29;80.30;100330.84;1667480;83;25549;-84
2021/03/08 03:07:18;;;;;;;19.30;9.15;;;;;;;-1.35;80.23;100328.17;1658879;84;25816;-84
2021/03/08 03:09:46;;;;;;;23.10;10.05;;;;;;;-1.37;80.36;100333.38;1675945;83;25781;-83
2021/03/08 03:12:15;;;;;;;22.75;10.13;;;;;;;-1.42;80.36;100337.12;1681784;83;25583;-83
2021/03/08 03:14:44;;;;;;;26.37;10.53;;;;;;;-1.45;80.48;100339.87;1681723;83;26491;-83
2021/03/08 03:17:14;;;;;;;15.58;7.95;;;;;;;-1.49;80.42;100345.64;1675094;83;25620;-84
2021/03/08 03:19:47;;;;;;;13.22;7.45;;;;;;;-1.47;80.51;100351.97;1683285;83;25859;-85
2021/03/08 03:22:14;;;;;;;12.95;6.47;;;;;;;-1.49;80.45;100354.61;1683494;83;25828;-86
2021/03/08 03:24:41;;;;;;;11.25;7.05;;;;;;;-1.51;80.48;100356.89;1669790;84;25855;-85
2021/03/08 03:27:09;;;;;;;10.10;7.10;;;;;;;-1.54;80.47;100359.63;1650184;85;25719;-85
2021/03/08 03:29:38;;;;;;;13.18;8.20;;;;;;;-1.53;80.51;100359.98;1671133;84;26306;-86
2021/03/08 03:32:06;;;;;;;10.60;6.30;;;;;;;-1.52;80.63;100365.50;1656672;84;26025;-84
2021/03/08 03:34:33;;;;;;;14.45;7.72;;;;;;;-1.51;80.54;100367.95;1661598;84;25669;-84
2021/03/08 03:37:01;;;;;;;12.45;6.47;;;;;;;-1.50;80.52;100368.78;1683379;83;25755;-85
2021/03/08 03:39:28;;;;;;;13.30;7.62;;;;;;;-1.49;80.52;100372.55;1681356;83;26837;-85
2021/03/08 03:41:55;;;;;;;16.57;7.25;;;;;;;-1.52;80.40;100373.19;1670057;83;25831;-85
2021/03/08 03:44:22;;;;;;;13.08;7.70;;;;;;;-1.55;80.41;100377.21;1675634;83;25835;-85
2021/03/08 03:46:50;;;;;;;16.20;8.23;;;;;;;-1.58;80.38;100379.03;1678176;83;25641;-85
2021/03/08 03:49:18;;;;;;;13.43;7.17;;;;;;;-1.57;80.39;100377.28;1684599;83;25931;-85
2021/03/08 03:51:45;;;;;;;12.65;7.17;;;;;;;-1.60;80.40;100379.56;1689576;83;25832;-85
2021/03/08 03:54:11;;;;;;;11.53;5.90;;;;;;;-1.60;80.59;100379.56;1673270;84;25747;-85
2021/03/08 03:56:57;;;;;;;12.47;6.40;;;;;;;-1.66;80.38;100385.50;1669217;84;25803;-85
2021/03/08 03:59:38;;;;;;;12.30;7.20;;;;;;;-1.69;80.46;100385.22;1678956;83;25979;-85
2021/03/08 04:02:12;;;;;;;12.78;6.85;;;;;;;-1.69;80.44;100383.94;1674064;84;25630;-85
2021/03/08 04:04:54;;;;;;;14.10;7.12;;;;;;;-1.68;80.47;100388.14;1681412;83;25819;-85
2021/03/08 04:07:21;;;;;;;11.43;7.05;;;;;;;-1.65;80.40;100386.68;1676112;83;26304;-85
2021/03/08 04:09:51;;;;;;;12.15;7.00;;;;;;;-1.67;80.37;100396.64;1676758;83;25304;-85
2021/03/08 04:12:26;;;;;;;11.10;6.22;;;;;;;-1.68;80.34;100393.72;1657640;84;25732;-85
2021/03/08 04:14:57;;;;;;;14.15;7.58;;;;;;;-1.69;80.32;100392.05;1653717;84;25801;-84
2021/03/08 04:17:26;;;;;;;11.65;6.47;;;;;;;-1.72;80.25;100393.51;1674857;83;26104;-84
2021/03/08 04:19:56;;;;;;;12.40;7.28;;;;;;;-1.73;80.28;100390.13;1682496;83;25871;-84
2021/03/08 04:22:25;;;;;;;;;;;;;;;-1.73;80.25;100402.12;1686981;83;25780;-84
2021/03/08 04:24:53;;;;;;;10.88;6.50;;;;;;;-1.75;80.19;100402.19;1662017;84;26433;-85
2021/03/08 04:27:21;;;;;;;14.60;6.78;;;;;;;-1.77;80.25;100405.74;1674317;84;25839;-85
2021/03/08 04:29:48;;;;;;;13.60;7.00;;;;;;;-1.77;80.28;100407.88;1687530;83;25790;-84
2021/03/08 04:32:17;;;;;;;10.88;5.85;;;;;;;-1.80;80.20;100409.33;1634461;86;26093;-84
2021/03/08 04:34:44;;;;;;;11.05;6.60;;;;;;;-1.81;80.24;100409.76;1661562;84;26284;-84
2021/03/08 04:37:14;;;;;;;13.68;6.67;;;;;;;-1.83;80.23;100412.88;1681975;83;25931;-85
2021/03/08 04:39:41;;;;;;;10.60;6.50;;;;;;;-1.83;80.28;100412.88;1662806;84;25954;-84
2021/03/08 04:42:09;;;;;;;14.23;7.12;;;;;;;-1.84;80.27;100414.23;1674764;84;25794;-84
2021/03/08 04:44:39;;;;;;;15.45;7.65;;;;;;;-1.90;80.19;100411.56;1679531;83;25818;-84
2021/03/08 04:47:07;;;;;;;13.30;7.70;;;;;;;-1.91;80.34;100416.32;1683307;83;25838;-84
2021/03/08 04:49:34;;;;;;;16.10;7.80;;;;;;;-1.89;80.46;100413.20;1679625;83;25733;-84
2021/03/08 04:52:02;;;;;;;14.87;8.63;;;;;;;-1.91;80.31;100418.03;1682586;83;25496;-84
2021/03/08 04:54:29;;;;;;;15.45;9.80;;;;;;;-1.94;80.25;100420.77;1679147;83;25904;-84
2021/03/08 04:56:56;;;;;;;20.25;10.60;;;;;;;-1.95;80.30;100419.13;1678162;84;25733;-84
2021/03/08 04:59:24;;;;;;;22.25;11.60;;;;;;;-1.96;80.38;100414.92;1672808;84;25430;-84
2021/03/08 05:01:53;;;;;;;21.65;10.88;;;;;;;-1.95;80.31;100425.52;1678005;83;25885;-85
2021/03/08 05:04:22;;;;;;;27.58;13.88;;;;;;;-1.96;80.40;100423.88;1665482;84;25354;-84
2021/03/08 05:06:49;;;;;;;24.72;12.58;;;;;;;-2.01;80.25;100424.95;1675576;83;25788;-84
2021/03/08 05:09:16;;;;;;;24.45;13.35;;;;;;;-2.01;80.30;100422.38;1683876;83;25835;-84
2021/03/08 05:11:44;;;;;;;21.17;10.80;;;;;;;-1.99;80.31;100427.87;1677250;83;25752;-84
2021/03/08 05:14:37;;;;;;;17.95;9.75;;;;;;;-2.01;80.38;100430.53;1658168;84;25801;-84
2021/03/08 05:17:06;;;;;;;17.35;8.60;;;;;;;-2.03;80.34;100429.31;1591204;87;25901;-72
2021/03/08 05:19:34;;;;;;;16.30;8.35;;;;;;;-2.03;80.42;100426.75;1575183;89;25836;-68
2021/03/08 05:22:01;;;;;;;12.70;7.75;;;;;;;-2.01;80.51;100429.25;1621724;83;25918;-68
2021/03/08 05:24:27;;;;;;;14.40;8.20;;;;;;;-2.03;80.41;100426.75;1672372;83;25412;-68
2021/03/08 05:26:55;;;;;;;16.02;9.25;;;;;;;-2.04;80.44;100435.36;1639304;83;26422;-68
2021/03/08 05:29:22;;;;;;;16.52;9.83;;;;;;;-2.02;80.41;100437.39;1664469;83;25741;-68
2021/03/08 05:31:49;;;;;;;13.13;8.10;;;;;;;-2.02;80.38;100439.95;1633344;84;25502;-68
2021/03/08 05:34:17;;;;;;;15.65;9.10;;;;;;;-1.97;80.63;100445.27;1632179;83;25719;-68
2021/03/08 05:36:47;;;;;;;14.80;8.38;;;;;;;-2.00;80.38;100442.41;1653323;84;25950;-68
2021/03/08 05:39:18;;;;;;;16.17;8.45;;;;;;;-2.00;80.51;100442.41;1651221;85;25840;-68
2021/03/08 05:41:55;;;;;;;15.68;8.93;;;;;;;-1.99;80.50;100441.95;1663471;84;25761;-68
2021/03/08 05:44:26;;;;;;;15.88;8.08;;;;;;;-1.96;80.52;100452.05;1663300;84;25768;-68
2021/03/08 05:46:55;;;;;;;;;;;;;;;-1.95;80.51;100450.67;1654823;84;26003;-73
2021/03/08 05:50:19;;;;;;;15.18;8.15;;;;;;;-1.96;80.46;100443.09;1660982;84;25771;-72
2021/03/08 05:53:20;;;;;;;20.00;9.88;;;;;;;-1.98;80.48;100450.02;1600782;87;25842;-73
2021/03/08 05:56:15;;;;;;;30.43;13.05;;;;;;;-2.00;80.61;100447.53;1640451;85;25760;-73
2021/03/08 05:59:07;;;;;;;22.93;11.75;;;;;;;-1.97;80.70;100454.23;1637161;85;25854;-73
2021/03/08 06:01:42;;;;;;;20.40;11.35;;;;;;;-1.90;80.84;100458.94;1643669;84;25856;-68
2021/03/08 06:04:20;;;;;;;20.32;11.00;;;;;;;-1.86;80.75;100467.28;1641953;85;25479;-68
2021/03/08 06:07:33;;;;;;;16.42;9.88;;;;;;;-1.83;80.83;100463.27;1648408;84;25850;-68
2021/03/08 06:10:08;;;;;;;17.85;9.35;;;;;;;-1.79;80.83;100476.30;1640106;85;26472;-67
2021/03/08 06:12:40;;;;;;;15.90;8.75;;;;;;;-1.73;80.89;100474.67;1636380;86;26040;-73
2021/03/08 06:15:14;;;;;;;16.02;8.90;;;;;;;-1.69;80.78;100476.17;1625176;86;25815;-68
2021/03/08 06:17:41;;;;;;;15.28;8.38;;;;;;;-1.69;80.79;100483.86;1586624;88;25574;-68
2021/03/08 06:20:09;;;;;;;15.63;9.00;;;;;;;-1.65;80.85;100485.79;1592950;87;25844;-68
2021/03/08 06:22:38;;;;;;;19.50;9.53;;;;;;;-1.63;80.83;100482.23;1612180;87;26350;-67
2021/03/08 06:25:08;;;;;;;14.70;8.28;;;;;;;-1.59;80.89;100489.29;1627030;86;25497;-68
2021/03/08 06:27:35;;;;;;;11.85;6.97;;;;;;;-1.53;80.93;100493.25;1633428;84;25942;-68
2021/03/08 06:30:04;;;;;;;16.25;8.70;;;;;;;-1.53;80.88;100499.20;1641614;85;26569;-68
2021/03/08 06:32:31;;;;;;;14.10;7.87;;;;;;;-1.50;80.83;100495.21;1682660;83;25748;-68
2021/03/08 06:34:58;;;;;;;14.65;7.97;;;;;;;-1.45;80.88;100503.45;1681996;83;26132;-68
2021/03/08 06:37:26;;;;;;;12.88;7.67;;;;;;;-1.41;80.82;100501.56;1683412;83;26010;-68
2021/03/08 06:39:53;;;;;;;15.65;8.03;;;;;;;-1.36;80.81;100509.83;1657612;84;25989;-68
2021/03/08 06:42:20;;;;;;;12.18;6.95;;;;;;;-1.33;80.71;100516.06;1620679;85;26068;-68
2021/03/08 06:44:48;;;;;;;15.63;7.28;;;;;;;-1.26;80.71;100516.08;1664286;83;26547;-68
2021/03/08 06:47:16;;;;;;;13.48;6.70;;;;;;;-1.23;80.68;100521.48;1662689;82;25962;-68
2021/03/08 06:49:42;;;;;;;14.83;7.20;;;;;;;-1.16;80.71;100523.62;1694876;81;25714;-73
2021/03/08 06:52:14;;;;;;;15.70;7.95;;;;;;;-1.09;80.50;100525.84;1701647;82;25700;-73
2021/03/08 06:54:43;;;;;;;17.45;8.28;;;;;;;-1.02;80.50;100527.98;1695215;82;25381;-73
2021/03/08 06:57:30;;;;;;;16.57;7.08;;;;;;;-0.97;80.39;100531.58;1706737;82;26443;-74
2021/03/08 07:00:01;;;;;;;13.00;6.92;;;;;;;-0.92;80.33;100535.53;1706321;81;26320;-72
2021/03/08 07:02:40;;;;;;;12.78;5.78;;;;;;;-0.81;80.23;100532.36;1699207;81;25731;-73
2021/03/08 07:05:16;;;;;;;13.87;6.83;;;;;;;-0.79;79.83;100534.39;1616425;85;25853;-68
2021/03/08 07:07:57;;;;;;;13.28;6.37;;;;;;;-0.75;79.87;100536.31;1583996;88;25429;-67
2021/03/08 07:10:37;;;;;;;12.75;6.12;;;;;;;-0.68;79.93;100530.74;1584587;87;25695;-73
2021/03/08 07:13:08;;;;;;;13.30;6.17;;;;;;;-0.61;79.65;100530.38;1602985;86;26849;-73
2021/03/08 07:15:58;;;;;;;13.55;6.78;;;;;;;-0.53;79.60;100544.88;1608265;86;25750;-72
2021/03/08 07:18:25;;;;;;;14.45;7.65;;;;;;;-0.51;79.31;100538.73;1575295;88;25891;-72
2021/03/08 07:21:13;;;;;;;11.45;6.20;;;;;;;-0.42;79.22;100543.79;1567834;88;26198;-67
2021/03/08 07:23:41;;;;;;;11.38;5.80;;;;;;;-0.37;79.01;100553.34;1578391;87;25859;-68
2021/03/08 07:26:10;;;;;;;14.95;6.50;;;;;;;-0.35;78.39;100550.69;1611936;87;25800;-68
2021/03/08 07:28:37;;;;;;;11.60;5.67;;;;;;;-0.37;78.36;100546.91;1583797;87;25979;-68
2021/03/08 07:31:06;;;;;;;13.05;6.15;;;;;;;-0.34;78.33;100554.44;1549290;88;25882;-69
2021/03/08 07:33:32;;;;;;;17.20;7.33;;;;;;;-0.28;78.44;100557.09;1586014;87;25810;-69
2021/03/08 07:35:59;;;;;;;11.90;6.33;;;;;;;-0.20;78.55;100559.22;1584792;87;26000;-70
2021/03/08 07:38:36;;;;;;;10.00;6.22;;;;;;;-0.14;78.27;100556.28;1544365;89;25587;-71
2021/03/08 07:41:19;;;;;;;12.35;6.67;;;;;;;-0.12;77.78;100553.98;1538511;90;25562;-71
2021/03/08 07:43:49;;;;;;;11.15;6.45;;;;;;;-0.09;77.85;100541.42;1624752;85;25836;-70
2021/03/08 07:46:32;;;;;;;13.85;6.92;;;;;;;-0.03;77.71;100552.60;1669053;83;25890;-68
2021/03/08 07:49:01;;;;;;;10.68;5.70;;;;;;;0.10;77.88;100553.98;1666387;83;25766;-68
2021/03/08 07:51:27;;;;;;;11.75;6.25;;;;;;;0.16;77.16;100548.46;1663302;83;26153;-68
2021/03/08 07:54:09;;;;;;;13.68;6.58;;;;;;;0.18;77.45;100556.91;1681892;83;26328;-68
2021/03/08 07:56:35;;;;;;;13.83;7.05;;;;;;;0.23;77.91;100547.65;1678276;83;26423;-68
2021/03/08 07:59:02;;;;;;;10.55;5.22;;;;;;;0.45;78.14;100553.11;1678315;83;25754;-74
2021/03/08 08:01:28;;;;;;;13.72;5.65;;;;;;;0.51;77.71;100552.72;1669231;83;26534;-68
2021/03/08 08:03:55;;;;;;;11.53;4.95;;;;;;;0.53;77.38;100557.31;1675251;83;25869;-72
2021/03/08 08:06:24;;;;;;;11.12;6.17;;;;;;;0.58;77.06;100554.47;1679705;83;26183;-72
2021/03/08 08:08:56;;;;;;;9.40;5.35;;;;;;;0.61;77.13;100559.41;1676893;83;26506;-68
2021/03/08 08:11:27;;;;;;;9.50;5.58;;;;;;;0.60;76.77;100567.59;1674917;83;25590;-68
2021/03/08 08:14:00;;;;;;;13.38;6.78;;;;;;;0.61;76.73;100560.23;1659658;83;25907;-73
2021/03/08 08:16:31;;;;;;;20.70;12.03;;;;;;;0.69;76.69;100556.36;1653255;83;25854;-72
2021/03/08 08:19:06;;;;;;;12.28;6.60;;;;;;;0.75;76.12;100563.22;1677681;83;25775;-72
2021/03/08 08:21:42;;;;;;;14.73;7.00;;;;;;;0.78;75.75;100564.30;1684642;83;25692;-73
2021/03/08 08:24:26;;;;;;;21.10;10.15;;;;;;;0.84;75.30;100556.66;1685105;83;26613;-73
2021/03/08 08:26:57;;;;;;;15.23;8.10;;;;;;;0.89;74.84;100559.77;1674059;81;26343;-73
2021/03/08 08:29:27;;;;;;;22.27;11.22;;;;;;;0.95;75.00;100561.12;1678333;83;25804;-73
2021/03/08 08:32:06;;;;;;;14.23;6.53;;;;;;;1.01;75.06;100569.73;1635095;83;33186;-74
2021/03/08 08:34:45;;;;;;;10.97;5.90;;;;;;;1.04;73.97;100575.53;1687953;82;25895;-74
2021/03/08 08:37:26;;;;;;;10.30;5.78;;;;;;;1.06;73.48;100578.84;1705090;82;25284;-70
2021/03/08 08:39:58;;;;;;;11.10;5.95;;;;;;;1.08;73.94;100581.30;1662760;83;25715;-70
2021/03/08 08:42:29;;;;;;;12.50;6.72;;;;;;;1.14;74.08;100580.07;1631223;85;26033;-76
2021/03/08 08:44:58;;;;;;;9.68;5.50;;;;;;;1.17;73.78;100581.98;1627019;86;25341;-75
2021/03/08 08:47:33;;;;;;;8.18;4.87;;;;;;;1.30;74.30;100581.55;1619304;85;25856;-76
2021/03/08 08:50:07;;;;;;;8.40;4.80;;;;;;;1.47;73.02;100580.47;1648791;83;25802;-76
2021/03/08 08:52:54;;;;;;;14.05;5.90;;;;;;;1.59;71.70;100592.99;1679172;83;25640;-77
2021/03/08 08:55:38;;;;;;;9.83;5.45;;;;;;;1.63;71.66;100589.73;1671892;83;25990;-75
2021/03/08 08:58:31;;;;;;;9.68;4.83;;;;;;;1.69;71.17;100587.59;1668263;82;25878;-73
2021/03/08 09:04:10;;;;;;;13.03;6.10;;;;;;;1.82;70.66;100585.47;1673974;83;25402;-68
2021/03/08 09:06:52;;;;;;;7.92;4.20;;;;;;;1.80;70.20;100592.47;1632034;84;25904;-74
2021/03/08 09:09:24;;;;;;;5.90;3.25;;;;;;;1.73;69.03;100594.65;1620639;85;25471;-73
2021/03/08 09:11:58;;;;;;;8.03;3.20;;;;;;;1.73;69.03;100594.65;1641614;84;25466;-68
2021/03/08 09:14:30;;;;;;;4.20;3.17;;;;;;;1.79;68.55;100589.08;1656228;83;25845;-67
2021/03/08 09:17:13;;;;;;;9.40;3.52;;;;;;;1.93;69.36;100594.59;1639291;85;25812;-68
2021/03/08 09:19:44;;;;;;;9.78;4.55;;;;;;;2.01;69.39;100596.19;1647890;84;25860;-73
2021/03/08 09:22:30;;;;;;;8.23;3.90;;;;;;;2.11;68.61;100596.40;1667911;83;25790;-73
2021/03/08 09:25:14;;;;;;;12.15;6.00;;;;;;;2.06;67.40;100604.44;1625076;84;26235;-73
2021/03/08 09:27:50;;;;;;;16.10;6.65;;;;;;;2.00;66.53;100602.28;1664742;84;26568;-70
2021/03/08 09:30:23;;;;;;;11.48;5.80;;;;;;;2.00;66.53;100602.28;1607133;85;25890;-70
2021/03/08 09:33:06;;;;;;;5.25;3.17;;;;;;;2.07;66.60;100606.54;1645514;84;25902;-75
2021/03/08 09:35:41;;;;;;;10.10;4.10;;;;;;;2.11;64.47;100603.66;1612497;86;26057;-69
2021/03/08 09:38:15;;;;;;;8.03;4.20;;;;;;;2.16;66.20;100605.94;1599861;86;37145;-70
2021/03/08 09:40:48;;;;;;;7.87;3.70;;;;;;;2.41;66.05;100609.75;1615761;85;26120;-70
2021/03/08 09:43:32;;;;;;;10.40;3.33;;;;;;;2.44;64.71;100610.83;1662721;83;25563;-74
2021/03/08 09:46:13;;;;;;;4.60;2.80;;;;;;;2.20;63.31;100599.16;1672126;83;26905;-70
2021/03/08 09:48:42;;;;;;;3.58;2.90;;;;;;;2.20;63.31;100599.16;1661957;84;25795;-68
2021/03/08 09:51:13;;;;;;;6.00;3.30;;;;;;;2.21;64.52;100612.89;1613753;85;25963;-68
2021/03/08 09:53:46;;;;;;;7.22;3.45;;;;;;;2.12;63.64;100621.23;1663571;84;25844;-69
2021/03/08 09:56:17;;;;;;;7.20;3.67;;;;;;;2.12;63.64;100621.23;1631069;84;25896;-74
2021/03/08 09:58:44;;;;;;;7.33;3.65;;;;;;;1.96;64.28;100600.82;1632265;85;25875;-76
2021/03/08 10:01:17;;;;;;;9.40;5.17;;;;;;;2.02;65.58;100599.14;1617043;85;25882;-71
2021/03/08 10:03:45;;;;;;;7.87;4.40;;;;;;;2.23;65.62;100622.15;1618069;85;25512;-71
2021/03/08 10:06:32;;;;;;;7.25;3.98;;;;;;;2.23;63.99;100622.62;1676181;83;25937;-71
2021/03/08 10:09:02;;;;;;;5.40;3.33;;;;;;;2.23;63.99;100622.62;1681460;83;25722;-69
2021/03/08 10:11:30;;;;;;;6.72;3.42;;;;;;;2.25;65.62;100627.69;1671054;83;26401;-69
2021/03/08 10:13:58;;;;;;;4.80;3.30;;;;;;;2.26;64.37;100606.94;1685054;83;25663;-74
2021/03/08 10:16:28;;;;;;;6.72;3.60;;;;;;;2.26;64.37;100606.94;1679239;83;25871;-68
2021/03/08 10:18:57;;;;;;;5.10;3.22;;;;;;;2.41;63.83;100625.70;1676842;83;25976;-73
2021/03/08 10:21:23;;;;;;;5.78;3.45;;;;;;;2.43;62.72;100633.70;1687492;83;25796;-73
2021/03/08 10:23:50;;;;;;;6.12;3.45;;;;;;;2.43;62.72;100633.70;1685590;83;25976;-73
2021/03/08 10:26:19;;;;;;;8.18;4.05;;;;;;;2.37;62.68;100625.54;1625234;85;26766;-73
2021/03/08 10:28:51;;;;;;;8.98;4.78;;;;;;;2.27;62.86;100630.52;1667590;83;25898;-68
2021/03/08 10:31:27;;;;;;;14.13;4.47;;;;;;;2.25;63.69;100645.73;1656835;84;25772;-69
2021/03/08 10:34:10;;;;;;;7.28;4.25;;;;;;;2.31;63.77;100637.57;1656395;84;25979;-72
2021/03/08 10:36:39;;;;;;;6.83;3.77;;;;;;;2.28;62.24;100636.50;1649310;84;25946;-72
2021/03/08 10:41:56;;;;;;;8.83;3.60;;;;;;;2.34;63.05;100644.63;1663038;82;25718;-69
2021/03/08 10:44:24;;;;;;;8.08;4.28;;;;;;;2.44;62.69;100640.96;1659092;83;26844;-73
2021/03/08 10:46:50;;;;;;;7.00;4.15;;;;;;;2.52;62.60;100646.89;1672433;83;25982;-73
2021/03/08 10:49:16;;;;;;;7.62;3.98;;;;;;;2.59;62.90;100647.66;1687056;83;25832;-74
2021/03/08 10:51:43;;;;;;;5.85;3.72;;;;;;;2.68;62.30;100643.60;1683215;82;25686;-74
2021/03/08 10:54:12;;;;;;;7.75;3.75;;;;;;;2.64;61.95;100644.73;1675547;83;25765;-74
2021/03/08 10:56:44;;;;;;;11.25;5.40;;;;;;;2.58;61.46;100650.33;1674022;83;25851;-74
2021/03/08 10:59:33;;;;;;;10.58;4.95;;;;;;;2.55;62.48;100637.17;1681664;83;25671;-74
2021/03/08 11:02:09;;;;;;;8.45;4.00;;;;;;;2.55;61.77;100642.80;1678685;83;25903;-74
2021/03/08 11:04:38;;;;;;;16.80;7.83;;;;;;;2.50;61.96;100639.24;1680682;83;26263;-73
2021/03/08 11:07:06;;;;;;;9.35;4.25;;;;;;;2.96;65.54;100639.89;1681653;82;25921;-75
2021/03/08 11:09:36;;;;;;;8.30;4.65;;;;;;;2.94;61.81;100618.98;1685276;82;25975;-74
2021/03/08 11:12:04;;;;;;;;;;;;;;;2.94;61.81;100618.98;1684918;81;25876;-74
2021/03/08 11:14:54;;;;;;;8.75;4.08;;;;;;;3.00;58.35;100652.96;1701251;81;25919;-73
2021/03/08 11:17:40;;;;;;;7.78;4.20;;;;;;;2.86;58.14;100648.77;1699032;81;26066;-73
2021/03/08 11:20:11;;;;;;;9.80;4.95;;;;;;;2.73;59.33;100645.41;1606202;86;25911;-72
2021/03/08 11:23:07;;;;;;;5.42;3.00;;;;;;;2.68;60.15;100657.80;1628277;85;26467;-72
2021/03/08 11:25:43;;;;;;;7.28;3.50;;;;;;;2.58;57.12;100656.30;1613538;86;26866;-73
2021/03/08 11:28:13;;;;;;;8.98;4.85;;;;;;;2.37;58.02;100641.02;1619404;86;26496;-73
2021/03/08 11:30:46;;;;;;;9.55;4.65;;;;;;;2.35;59.03;100655.33;1623402;86;25902;-72
2021/03/08 11:33:13;;;;;;;15.28;5.47;;;;;;;2.29;56.89;100654.45;1632521;86;26008;-73
2021/03/08 11:35:41;;;;;;;10.45;4.55;;;;;;;2.22;56.54;100657.90;1613698;86;25914;-72
2021/03/08 11:38:13;;;;;;;6.87;3.55;;;;;;;2.18;56.39;100658.20;1629980;86;26426;-71
2021/03/08 11:40:48;;;;;;;10.80;4.30;;;;;;;2.16;57.98;100636.41;1606222;86;26029;-70
2021/03/08 11:43:21;;;;;;;9.13;4.35;;;;;;;2.41;57.17;100635.55;1577498;87;25901;-69
2021/03/08 11:45:50;;;;;;;5.78;3.70;;;;;;;2.41;57.17;100635.55;1631876;84;25987;-69
2021/03/08 11:48:23;;;;;;;9.55;4.25;;;;;;;2.70;56.51;100645.62;1666946;84;25748;-73
2021/03/08 11:50:49;;;;;;;6.47;2.70;;;;;;;2.92;56.38;100627.30;1660599;84;25386;-69